PST,Max TemperatureF,Mean TemperatureF,Min TemperatureF,Max Dew PointF,MeanDew PointF,Min DewpointF,Max Humidity, Mean Humidity, Min Humidity, Max Sea Level PressureIn, Mean Sea Level PressureIn, Min Sea Level PressureIn, Max VisibilityMiles, Mean VisibilityMiles, Min VisibilityMiles, Max Wind SpeedMPH, Mean Wind SpeedMPH, Max Gust SpeedMPH,PrecipitationIn, CloudCover, Events, WindDirDegrees
2013-2-1,47,44,41,44,41,40,95,91,85,30.41,30.38,30.31,,,,10,7,,0.00,,,260
2013-2-2,43,42,40,41,39,38,94,90,81,30.41,30.30,30.23,,,,13,7,,0.00,,,307
2013-2-3,43,42,40,42,40,38,95,92,83,30.26,30.20,30.12,,,,18,9,,0.02,,,115
2013-2-4,45,43,41,43,42,41,95,91,82,30.11,29.99,29.80,,,,24,18,30,0.00,,,109
2013-2-5,47,45,43,43,41,38,91,84,76,29.78,29.70,29.67,,,,29,17,28,0.08,,,122
2013-2-6,45,44,42,42,39,36,93,82,70,29.90,29.82,29.65,,,,43,16,54,0.12,,,122
2013-2-7,46,43,40,42,37,34,87,77,63,30.16,29.91,29.62,,,,37,19,44,0.12,,,138
2013-2-8,43,41,39,39,38,36,88,84,76,30.27,30.24,30.18,,,,14,9,,0.00,,,250
2013-2-9,42,40,39,40,38,36,93,88,83,30.32,30.26,30.24,,,,9,4,,0.00,,,156
2013-2-10,43,42,40,41,39,38,95,89,83,30.35,30.33,30.29,,,,7,3,,0.00,,,106
2013-2-11,43,42,40,41,40,38,95,91,85,30.30,30.29,30.27,,,,15,8,,0.02,,,109
2013-2-12,45,44,42,43,42,41,94,91,86,30.31,30.24,30.16,,,,26,15,31,0.02,,,104
2013-2-13,46,44,43,42,40,38,88,82,74,30.43,30.34,30.20,,,,23,7,,0.00,,,248
2013-2-14,44,43,42,42,41,39,95,92,85,30.55,30.50,30.43,,,,20,10,,0.16,,,109
2013-2-15,46,44,42,42,41,41,96,91,79,30.56,30.39,30.16,,,,10,6,,0.02,,,44
2013-2-16,46,44,41,43,40,37,93,87,67,30.14,30.08,30.04,,,,24,9,,0.01,,,169
2013-2-17,45,42,38,38,35,33,84,75,61,30.19,30.15,30.08,,,,22,15,,0.00,,,253
2013-2-18,43,41,39,39,38,36,90,85,74,30.06,29.87,29.72,,,,30,16,,0.08,,,114
2013-2-19,43,41,39,38,37,35,91,82,71,29.95,29.85,29.73,,,,23,14,29,0.02,,,268
2013-2-20,42,40,39,39,37,34,91,87,80,29.98,29.96,29.93,,,,23,12,,0.00,,,131
2013-2-21,45,42,40,41,38,35,89,81,64,29.94,29.90,29.87,,,,20,15,,0.00,,,115
2013-2-22,48,45,42,42,36,30,90,72,46,29.91,29.65,29.49,,,,33,19,40,0.04,,,155
2013-2-23,46,44,41,38,35,29,81,71,56,30.27,30.07,29.75,,,,24,9,,0.00,,,273
2013-2-24,45,44,42,41,38,32,88,81,64,30.28,30.08,29.75,,,,34,19,41,0.08,,,122
2013-2-25,48,45,41,41,36,31,88,69,40,30.19,29.90,29.64,,,,33,21,39,0.08,,,280
2013-2-26,43,41,39,39,36,30,90,79,62,30.23,30.16,30.06,,,,34,16,43,0.08,,,123
2013-2-27,44,41,38,40,37,32,90,82,71,30.26,30.22,30.12,,,,20,9,20,0.04,,,117
2013-2-28,44,42,40,43,39,37,94,88,80,30.24,30.16,30.12,,,,32,20,,0.08,,,120